createdAt,value
2022-10-17T00:01:33.762Z,100.00
2022-10-17T00:04:00.309Z,100.00
2022-10-17T00:06:26.531Z,100.00
2022-10-17T00:08:52.776Z,100.00
2022-10-17T00:11:22.438Z,100.00
2022-10-17T00:13:50.100Z,100.00
2022-10-17T00:16:23.714Z,100.00
2022-10-17T00:18:50.247Z,100.00
2022-10-17T00:21:19.868Z,100.00
2022-10-17T00:23:46.980Z,100.00
2022-10-17T00:26:14.485Z,100.00
2022-10-17T00:28:40.822Z,100.00
2022-10-17T00:31:09.438Z,100.00
2022-10-17T00:33:36.353Z,100.00
2022-10-17T00:36:07.841Z,100.00
2022-10-17T00:38:34.875Z,100.00
2022-10-17T00:41:02.117Z,100.00
2022-10-17T00:43:29.754Z,100.00
2022-10-17T00:45:56.499Z,100.00
2022-10-17T00:48:25.043Z,100.00
2022-10-17T00:50:52.287Z,100.00
2022-10-17T00:53:18.751Z,100.00
2022-10-17T00:55:50.771Z,100.00
2022-10-17T00:58:17.564Z,100.00
2022-10-17T01:00:44.732Z,100.00
2022-10-17T01:03:11.251Z,100.00
2022-10-17T01:05:38.310Z,100.00
2022-10-17T01:08:05.353Z,100.00
2022-10-17T01:10:53.371Z,100.00
2022-10-17T01:13:31.223Z,100.00
2022-10-17T01:16:17.131Z,100.00
2022-10-17T01:18:49.939Z,100.00
2022-10-17T01:21:25.418Z,100.00
2022-10-17T01:24:22.959Z,100.00
2022-10-17T01:27:07.961Z,100.00
2022-10-17T01:30:02.079Z,100.00
2022-10-17T01:32:36.658Z,100.00
2022-10-17T01:35:11.876Z,100.00
2022-10-17T01:37:45.168Z,100.00
2022-10-17T01:40:25.713Z,100.00
2022-10-17T01:43:16.685Z,100.00
2022-10-17T01:45:47.430Z,100.00
2022-10-17T01:48:22.917Z,100.00
2022-10-17T01:50:52.932Z,100.00
2022-10-17T01:53:23.245Z,100.00
2022-10-17T01:55:51.401Z,100.00
2022-10-17T01:58:23.765Z,100.00
2022-10-17T02:00:50.747Z,100.00
2022-10-17T02:03:19.417Z,100.00
2022-10-17T02:05:46.070Z,100.00
2022-10-17T02:08:12.688Z,100.00
2022-10-17T02:10:55.263Z,100.00
2022-10-17T02:13:43.399Z,100.00
2022-10-17T02:16:19.019Z,100.00
2022-10-17T02:19:16.298Z,100.00
2022-10-17T02:22:09.480Z,100.00
2022-10-17T02:24:42.688Z,100.00
2022-10-17T02:27:12.722Z,100.00
2022-10-17T02:29:50.493Z,100.00
2022-10-17T02:32:46.740Z,100.00
2022-10-17T02:35:17.076Z,100.00
2022-10-17T02:37:45.127Z,100.00
2022-10-17T02:40:14.291Z,100.00
2022-10-17T02:42:44.234Z,100.00
2022-10-17T02:45:11.091Z,100.00
2022-10-17T02:47:51.222Z,100.00
2022-10-17T02:50:21.649Z,100.00
2022-10-17T02:52:58.316Z,100.00
2022-10-17T02:55:36.616Z,100.00
2022-10-17T02:58:11.856Z,100.00
2022-10-17T03:00:39.325Z,100.00
2022-10-17T03:03:22.990Z,100.00
2022-10-17T03:05:50.133Z,100.00
2022-10-17T03:08:16.484Z,100.00
2022-10-17T03:10:42.710Z,100.00
2022-10-17T03:13:09.967Z,100.00
2022-10-17T03:15:37.539Z,100.00
2022-10-17T03:18:03.893Z,100.00
2022-10-17T03:20:30.620Z,100.00
2022-10-17T03:22:56.877Z,100.00
2022-10-17T03:25:23.281Z,100.00
2022-10-17T03:27:49.998Z,100.00
2022-10-17T03:30:16.368Z,100.00
2022-10-17T03:32:42.592Z,100.00
2022-10-17T03:35:14.004Z,100.00
2022-10-17T03:37:43.451Z,100.00
2022-10-17T03:40:10.561Z,100.00
2022-10-17T03:42:36.832Z,100.00
2022-10-17T03:45:03.331Z,100.00
2022-10-17T03:47:31.153Z,100.00
2022-10-17T03:49:57.575Z,100.00
2022-10-17T03:52:23.891Z,100.00
2022-10-17T03:54:51.262Z,100.00
2022-10-17T03:57:18.555Z,100.00
2022-10-17T03:59:44.874Z,100.00
2022-10-17T04:02:11.660Z,100.00
2022-10-17T04:04:38.188Z,100.00
2022-10-17T04:07:04.639Z,100.00
2022-10-17T04:09:33.443Z,100.00
2022-10-17T04:12:00.323Z,100.00
2022-10-17T04:14:26.999Z,100.00
2022-10-17T04:16:53.588Z,100.00
2022-10-17T04:19:20.333Z,100.00
2022-10-17T04:21:46.614Z,100.00
2022-10-17T04:24:13.061Z,100.00
2022-10-17T04:26:39.966Z,100.00
2022-10-17T04:29:06.338Z,100.00
2022-10-17T04:31:32.796Z,100.00
2022-10-17T04:33:59.768Z,100.00
2022-10-17T04:36:26.378Z,100.00
2022-10-17T04:38:52.783Z,100.00
2022-10-17T04:41:20.032Z,100.00
2022-10-17T04:43:50.137Z,100.00
2022-10-17T04:46:18.230Z,100.00
2022-10-17T04:48:47.174Z,100.00
2022-10-17T04:51:16.590Z,100.00
2022-10-17T04:53:43.942Z,100.00
2022-10-17T04:56:15.403Z,100.00
2022-10-17T04:58:42.858Z,100.00
2022-10-17T05:01:11.950Z,100.00
2022-10-17T05:03:39.291Z,100.00
2022-10-17T05:06:10.884Z,100.00
2022-10-17T05:08:37.788Z,100.00
2022-10-17T05:11:05.828Z,100.00
2022-10-17T05:13:32.982Z,100.00
2022-10-17T05:16:01.159Z,100.00
2022-10-17T05:18:28.974Z,100.00
2022-10-17T05:20:56.216Z,100.00
2022-10-17T05:23:23.441Z,100.00
2022-10-17T05:25:55.119Z,100.00
2022-10-17T05:28:23.966Z,100.00
2022-10-17T05:30:51.038Z,100.00
2022-10-17T05:33:17.331Z,100.00
2022-10-17T05:35:44.543Z,100.00
2022-10-17T05:38:11.075Z,100.00
2022-10-17T05:40:39.357Z,100.00
2022-10-17T05:43:06.037Z,100.00
2022-10-17T05:45:32.635Z,100.00
2022-10-17T05:47:59.336Z,100.00
2022-10-17T05:50:25.839Z,100.00
2022-10-17T05:52:54.451Z,100.00
2022-10-17T05:55:22.617Z,100.00
2022-10-17T05:57:53.863Z,100.00
2022-10-17T06:00:22.111Z,100.00
2022-10-17T06:02:49.360Z,100.00
2022-10-17T06:05:16.219Z,100.00
2022-10-17T06:07:42.787Z,100.00
2022-10-17T06:10:10.000Z,100.00
2022-10-17T06:12:36.441Z,100.00
2022-10-17T06:15:02.877Z,100.00
2022-10-17T06:17:30.356Z,100.00
2022-10-17T06:19:57.562Z,100.00
2022-10-17T06:22:23.871Z,100.00
2022-10-17T06:24:50.487Z,100.00
2022-10-17T06:27:16.735Z,100.00
2022-10-17T06:29:42.988Z,100.00
2022-10-17T06:32:12.761Z,100.00
2022-10-17T06:34:42.029Z,100.00
2022-10-17T06:37:08.710Z,100.00
2022-10-17T06:39:38.229Z,100.00
2022-10-17T06:42:04.820Z,100.00
2022-10-17T06:44:35.594Z,100.00
2022-10-17T06:47:20.242Z,100.00
2022-10-17T06:49:46.965Z,100.00
2022-10-17T06:52:13.522Z,100.00
2022-10-17T06:54:40.062Z,100.00
2022-10-17T06:57:06.709Z,100.00
2022-10-17T06:59:33.913Z,100.00
2022-10-17T07:02:01.250Z,100.00
2022-10-17T07:04:28.521Z,100.00
2022-10-17T07:06:54.902Z,100.00
2022-10-17T07:09:22.778Z,100.00
2022-10-17T07:11:49.332Z,100.00
2022-10-17T07:14:16.121Z,100.00
2022-10-17T07:16:42.605Z,100.00
2022-10-17T07:19:10.117Z,100.00
2022-10-17T07:21:39.146Z,100.00
2022-10-17T07:24:07.471Z,100.00
2022-10-17T07:26:34.188Z,100.00
2022-10-17T07:29:01.793Z,100.00
2022-10-17T07:31:28.438Z,100.00
2022-10-17T07:33:54.976Z,100.00
2022-10-17T07:36:21.254Z,100.00
2022-10-17T07:38:47.758Z,100.00
2022-10-17T07:41:19.205Z,100.00
2022-10-17T07:43:48.178Z,100.00
2022-10-17T07:46:15.454Z,100.00
2022-10-17T07:48:41.819Z,100.00
2022-10-17T07:51:09.217Z,94.27
2022-10-17T07:53:37.358Z,87.66
2022-10-17T07:56:06.612Z,79.28
2022-10-17T07:58:32.885Z,77.33
2022-10-17T08:01:03.771Z,74.61
2022-10-17T08:03:30.316Z,69.63
2022-10-17T08:06:03.475Z,66.81
2022-10-17T08:08:30.037Z,59.48
2022-10-17T08:10:56.557Z,59.21
2022-10-17T08:13:23.318Z,58.08
2022-10-17T08:15:49.847Z,55.91
2022-10-17T08:18:16.236Z,55.04
2022-10-17T08:20:42.498Z,49.89
2022-10-17T08:23:09.040Z,51.58
2022-10-17T08:25:35.289Z,50.36
2022-10-17T08:28:01.577Z,47.18
2022-10-17T08:30:30.644Z,48.53
2022-10-17T08:32:56.939Z,43.28
2022-10-17T08:35:23.777Z,45.19
2022-10-17T08:37:50.312Z,46.56
2022-10-17T08:40:20.867Z,43.50
2022-10-17T08:43:03.810Z,45.58
2022-10-17T08:46:08.960Z,42.23
2022-10-17T08:48:43.956Z,41.87
2022-10-17T08:51:17.567Z,40.80
2022-10-17T08:53:53.562Z,39.51
2022-10-17T08:56:43.967Z,38.87
2022-10-17T08:59:14.426Z,39.23
2022-10-17T09:02:07.056Z,39.73
2022-10-17T09:04:51.980Z,38.06
2022-10-17T09:07:28.100Z,38.56
2022-10-17T09:10:21.388Z,36.96
2022-10-17T09:12:56.745Z,38.74
2022-10-17T09:15:41.872Z,37.69
2022-10-17T09:18:17.620Z,37.07
2022-10-17T09:20:55.100Z,37.63
2022-10-17T09:23:24.105Z,38.57
2022-10-17T09:25:59.843Z,37.79
2022-10-17T09:28:33.715Z,34.91
2022-10-17T09:31:04.527Z,33.13
2022-10-17T09:33:53.377Z,34.42
2022-10-17T09:36:21.568Z,33.20
2022-10-17T09:38:52.910Z,32.59
2022-10-17T09:41:45.836Z,32.83
2022-10-17T09:44:54.363Z,33.41
2022-10-17T09:47:30.239Z,32.16
2022-10-17T09:49:57.053Z,31.55
2022-10-17T09:52:32.325Z,32.34
2022-10-17T09:55:04.500Z,31.00
2022-10-17T09:57:57.714Z,32.94
2022-10-17T10:00:29.846Z,32.52
2022-10-17T10:03:16.756Z,31.96
2022-10-17T10:06:26.879Z,34.30
2022-10-17T10:08:55.703Z,33.40
2022-10-17T10:11:27.130Z,34.08
2022-10-17T10:13:53.689Z,32.86
2022-10-17T10:16:31.520Z,34.77
2022-10-17T10:18:58.786Z,34.01
2022-10-17T10:21:27.141Z,35.12
2022-10-17T10:24:01.990Z,33.77
2022-10-17T10:26:34.211Z,32.26
2022-10-17T10:29:05.878Z,29.75
2022-10-17T10:31:35.658Z,31.94
2022-10-17T10:34:14.373Z,32.26
2022-10-17T10:36:52.604Z,30.96
2022-10-17T10:39:34.766Z,29.10
2022-10-17T10:42:02.876Z,28.78
2022-10-17T10:44:31.158Z,28.56
2022-10-17T10:47:17.385Z,27.38
2022-10-17T10:49:44.230Z,27.10
2022-10-17T10:52:18.414Z,27.64
2022-10-17T10:55:10.735Z,27.13
2022-10-17T10:57:38.034Z,26.82
2022-10-17T11:00:15.464Z,27.35
2022-10-17T11:02:52.978Z,27.67
2022-10-17T11:05:37.684Z,26.64
2022-10-17T11:08:13.961Z,28.18
2022-10-17T11:11:18.272Z,30.89
2022-10-17T11:13:51.835Z,28.77
2022-10-17T11:16:20.517Z,30.57
2022-10-17T11:19:03.601Z,33.73
2022-10-17T11:21:59.372Z,36.52
2022-10-17T11:24:51.851Z,36.10
2022-10-17T11:27:18.375Z,37.24
2022-10-17T11:29:45.658Z,39.45
2022-10-17T11:32:17.805Z,40.32
2022-10-17T11:34:47.623Z,40.45
2022-10-17T11:37:27.315Z,41.04
2022-10-17T11:40:06.825Z,40.81
2022-10-17T11:42:38.541Z,42.03
2022-10-17T11:45:11.711Z,44.62
2022-10-17T11:47:40.639Z,43.65
2022-10-17T11:53:17.498Z,44.90
2022-10-17T11:55:44.609Z,45.91
2022-10-17T12:01:23.664Z,46.51
2022-10-17T12:04:10.682Z,46.74
2022-10-17T12:06:48.997Z,46.43
2022-10-17T12:09:15.445Z,45.11
2022-10-17T12:11:57.707Z,46.07
2022-10-17T12:14:33.283Z,46.41
2022-10-17T12:17:01.159Z,46.84
2022-10-17T12:19:37.717Z,46.20
2022-10-17T12:22:12.815Z,45.95
2022-10-17T12:24:44.754Z,45.97
2022-10-17T12:27:45.914Z,45.89
2022-10-17T12:30:12.528Z,46.07
2022-10-17T12:33:08.026Z,45.59
2022-10-17T12:35:37.093Z,47.44
2022-10-17T12:38:15.210Z,46.58
2022-10-17T12:40:46.324Z,46.21
2022-10-17T12:43:15.046Z,47.32
2022-10-17T12:45:52.370Z,46.40
2022-10-17T12:48:34.288Z,47.88
2022-10-17T12:51:34.323Z,48.10
2022-10-17T12:53:59.945Z,48.25
2022-10-17T12:56:40.270Z,47.72
2022-10-17T12:59:10.078Z,47.53
2022-10-17T13:01:38.166Z,48.85
2022-10-17T13:04:06.550Z,48.66
2022-10-17T13:06:40.275Z,49.47
2022-10-17T13:09:18.697Z,50.50
2022-10-17T13:11:45.082Z,49.12
2022-10-17T13:14:13.619Z,48.00
2022-10-17T13:17:00.728Z,49.78
2022-10-17T13:19:40.231Z,49.19
2022-10-17T13:22:19.039Z,49.49
2022-10-17T13:24:46.232Z,49.86
2022-10-17T13:27:33.183Z,49.61
2022-10-17T13:30:01.866Z,49.53
2022-10-17T13:32:37.170Z,49.76
2022-10-17T13:35:11.997Z,49.59
2022-10-17T13:37:40.430Z,51.25
2022-10-17T13:40:40.195Z,50.67
2022-10-17T13:42:56.136Z,50.11
2022-10-17T13:45:37.317Z,50.25
2022-10-17T13:48:06.372Z,52.35
2022-10-17T13:50:44.546Z,53.57
2022-10-17T13:53:26.502Z,53.95
2022-10-17T13:56:27.209Z,54.97
2022-10-17T13:58:57.462Z,53.79
2022-10-17T14:01:26.434Z,53.12
2022-10-17T14:04:07.281Z,52.70
2022-10-17T14:06:34.735Z,54.73
2022-10-17T14:09:04.101Z,57.05
2022-10-17T14:11:32.658Z,58.81
2022-10-17T14:13:59.949Z,59.91
2022-10-17T14:16:32.918Z,60.18
2022-10-17T14:18:59.326Z,57.21
2022-10-17T14:21:40.966Z,58.01
2022-10-17T14:24:28.123Z,57.63
2022-10-17T14:26:58.645Z,57.25
2022-10-17T14:29:29.618Z,56.77
2022-10-17T14:32:08.542Z,58.20
2022-10-17T14:34:37.562Z,60.05
2022-10-17T14:37:12.480Z,62.18
2022-10-17T14:39:39.259Z,64.06
2022-10-17T14:42:05.583Z,61.81
2022-10-17T14:44:34.091Z,63.73
2022-10-17T14:47:30.837Z,64.38
2022-10-17T14:50:07.938Z,66.91
2022-10-17T14:52:35.484Z,67.05
2022-10-17T14:55:20.420Z,65.33
2022-10-17T14:57:47.011Z,66.21
2022-10-17T15:00:15.155Z,66.41
2022-10-17T15:02:41.738Z,68.89
2022-10-17T15:05:12.978Z,67.41
2022-10-17T15:07:39.776Z,69.42
2022-10-17T15:10:06.545Z,69.65
2022-10-17T15:12:33.366Z,68.88
2022-10-17T15:14:59.594Z,70.30
2022-10-17T15:17:30.957Z,69.37
2022-10-17T15:19:58.340Z,70.00
2022-10-17T15:22:24.740Z,70.64
2022-10-17T15:24:51.074Z,70.82
2022-10-17T15:27:22.740Z,71.89
2022-10-17T15:29:49.900Z,73.36
2022-10-17T15:32:16.552Z,72.61
2022-10-17T15:34:43.171Z,72.82
2022-10-17T15:37:24.480Z,73.35
2022-10-17T15:39:54.137Z,73.82
2022-10-17T15:42:28.848Z,74.38
2022-10-17T15:44:56.066Z,74.70
2022-10-17T15:47:27.227Z,74.99
2022-10-17T15:49:55.092Z,75.41
2022-10-17T15:52:22.436Z,75.50
2022-10-17T15:54:48.818Z,76.33
2022-10-17T15:57:29.710Z,76.96
2022-10-17T15:59:57.708Z,77.47
2022-10-17T16:02:24.394Z,78.22
2022-10-17T16:04:52.182Z,78.33
2022-10-17T16:07:19.913Z,78.73
2022-10-17T16:09:46.683Z,78.97
2022-10-17T16:12:17.745Z,79.98
2022-10-17T16:14:44.367Z,81.71
2022-10-17T16:17:17.275Z,83.68
2022-10-17T16:19:44.101Z,84.92
2022-10-17T16:22:36.511Z,85.99
2022-10-17T16:25:09.729Z,87.60
2022-10-17T16:27:37.113Z,87.40
2022-10-17T16:30:06.221Z,88.06
2022-10-17T16:32:32.793Z,88.89
2022-10-17T16:35:01.932Z,89.60
2022-10-17T16:37:30.856Z,90.42
2022-10-17T16:39:57.123Z,90.83
2022-10-17T16:42:23.471Z,91.29
2022-10-17T16:44:50.327Z,91.66
2022-10-17T16:47:19.730Z,91.97
2022-10-17T16:49:46.033Z,92.00
2022-10-17T16:52:13.109Z,92.56
2022-10-17T16:54:39.341Z,92.69
2022-10-17T16:57:05.614Z,93.29
2022-10-17T16:59:32.253Z,93.93
2022-10-17T17:01:58.498Z,94.55
2022-10-17T17:04:24.761Z,95.31
2022-10-17T17:06:51.264Z,95.40
2022-10-17T17:09:17.598Z,96.04
2022-10-17T17:11:43.924Z,96.68
2022-10-17T17:14:11.102Z,97.20
2022-10-17T17:16:37.342Z,97.84
2022-10-17T17:19:10.485Z,98.38
2022-10-17T17:21:37.204Z,99.39
2022-10-17T17:24:04.279Z,99.42
2022-10-17T17:26:33.223Z,99.97
2022-10-17T17:29:00.431Z,100.00
2022-10-17T17:31:29.151Z,100.00
2022-10-17T17:36:30.723Z,100.00
2022-10-17T17:38:59.979Z,100.00
2022-10-17T17:41:26.900Z,100.00
2022-10-17T17:43:53.909Z,100.00
2022-10-17T17:46:21.442Z,100.00
2022-10-17T17:48:48.906Z,100.00
2022-10-17T17:51:17.667Z,100.00
2022-10-17T17:53:44.326Z,100.00
2022-10-17T17:56:16.668Z,100.00
2022-10-17T17:58:48.473Z,100.00
2022-10-17T18:01:19.320Z,100.00
2022-10-17T18:03:46.862Z,100.00
2022-10-17T18:06:13.907Z,100.00
2022-10-17T18:08:40.149Z,100.00
2022-10-17T18:11:06.693Z,100.00
2022-10-17T18:13:32.930Z,100.00
2022-10-17T18:16:00.781Z,100.00
2022-10-17T18:18:29.223Z,100.00
2022-10-17T18:20:55.910Z,100.00
2022-10-17T18:23:22.879Z,100.00
2022-10-17T18:25:56.033Z,100.00
2022-10-17T18:28:22.858Z,100.00
2022-10-17T18:30:49.473Z,100.00
2022-10-17T18:33:15.846Z,100.00
2022-10-17T18:35:42.141Z,100.00
2022-10-17T18:38:08.675Z,100.00
2022-10-17T18:40:34.945Z,100.00
2022-10-17T18:46:47.866Z,100.00
2022-10-17T18:49:23.219Z,100.00
2022-10-17T18:51:49.803Z,100.00
2022-10-17T18:54:20.496Z,100.00
2022-10-17T18:56:50.978Z,100.00
2022-10-17T18:59:18.651Z,100.00
2022-10-17T19:01:45.052Z,100.00
2022-10-17T19:04:11.808Z,100.00
2022-10-17T19:06:38.986Z,100.00
2022-10-17T19:09:07.604Z,100.00
2022-10-17T19:11:34.970Z,100.00
2022-10-17T19:14:02.918Z,100.00
2022-10-17T19:16:34.794Z,100.00
2022-10-17T19:19:06.920Z,100.00
2022-10-17T19:21:34.035Z,100.00
2022-10-17T19:24:02.894Z,100.00
2022-10-17T19:26:31.223Z,100.00
2022-10-17T19:29:00.408Z,100.00
2022-10-17T19:31:28.824Z,100.00
2022-10-17T19:33:56.246Z,100.00
2022-10-17T19:36:27.586Z,100.00
2022-10-17T19:38:57.120Z,100.00
2022-10-17T19:41:23.796Z,100.00
2022-10-17T19:43:50.141Z,100.00
2022-10-17T19:46:18.654Z,100.00
2022-10-17T19:48:45.184Z,100.00
2022-10-17T19:51:13.367Z,100.00
2022-10-17T19:53:39.993Z,100.00
2022-10-17T19:56:06.834Z,100.00
2022-10-17T19:58:34.110Z,100.00
2022-10-17T20:01:01.217Z,100.00
2022-10-17T20:03:28.205Z,100.00
2022-10-17T20:05:55.112Z,100.00
2022-10-17T20:08:21.579Z,100.00
2022-10-17T20:10:48.240Z,100.00
2022-10-17T20:13:14.741Z,100.00
2022-10-17T20:15:41.337Z,100.00
2022-10-17T20:18:08.404Z,100.00
2022-10-17T20:20:35.702Z,100.00
2022-10-17T20:23:02.715Z,100.00
2022-10-17T20:25:29.332Z,100.00
2022-10-17T20:27:55.722Z,100.00
2022-10-17T20:30:21.998Z,100.00
2022-10-17T20:32:48.513Z,100.00
2022-10-17T20:35:14.761Z,100.00
2022-10-17T20:37:42.672Z,100.00
2022-10-17T20:40:33.659Z,100.00
2022-10-17T20:42:56.234Z,100.00
2022-10-17T20:45:37.357Z,100.00
2022-10-17T20:48:15.072Z,100.00
2022-10-17T20:50:42.842Z,100.00
2022-10-17T20:53:34.749Z,100.00
2022-10-17T20:56:04.735Z,100.00
2022-10-17T20:58:31.103Z,100.00
2022-10-17T21:00:57.612Z,100.00
2022-10-17T21:03:24.338Z,100.00
2022-10-17T21:05:50.566Z,100.00
2022-10-17T21:08:17.082Z,100.00
2022-10-17T21:10:43.307Z,100.00
2022-10-17T21:13:09.836Z,100.00
2022-10-17T21:15:36.393Z,100.00
2022-10-17T21:18:02.618Z,100.00
2022-10-17T21:20:28.873Z,100.00
2022-10-17T21:22:55.409Z,100.00
2022-10-17T21:25:21.663Z,100.00
2022-10-17T21:27:47.897Z,100.00
2022-10-17T21:30:14.397Z,100.00
2022-10-17T21:32:51.618Z,100.00
2022-10-17T21:35:18.462Z,100.00
2022-10-17T21:37:44.681Z,100.00
2022-10-17T21:40:11.616Z,100.00
2022-10-17T21:42:38.133Z,100.00
2022-10-17T21:45:10.687Z,100.00
2022-10-17T21:48:11.186Z,100.00
2022-10-17T21:50:32.941Z,100.00
2022-10-17T21:52:59.465Z,100.00
2022-10-17T21:55:25.682Z,100.00
2022-10-17T21:57:51.936Z,100.00
2022-10-17T22:00:18.609Z,100.00
2022-10-17T22:02:45.160Z,100.00
2022-10-17T22:05:11.447Z,100.00
2022-10-17T22:07:37.722Z,100.00
2022-10-17T22:10:04.628Z,100.00
2022-10-17T22:12:31.047Z,100.00
2022-10-17T22:14:57.530Z,100.00
2022-10-17T22:17:24.298Z,100.00
2022-10-17T22:19:50.509Z,100.00
2022-10-17T22:22:16.773Z,100.00
2022-10-17T22:24:43.292Z,100.00
2022-10-17T22:27:12.278Z,100.00
2022-10-17T22:29:39.653Z,100.00
2022-10-17T22:32:06.170Z,100.00
2022-10-17T22:34:32.416Z,100.00
2022-10-17T22:36:58.647Z,100.00
2022-10-17T22:39:25.485Z,100.00
2022-10-17T22:41:51.719Z,100.00
2022-10-17T22:44:18.013Z,100.00
2022-10-17T22:46:44.508Z,100.00
2022-10-17T22:49:10.787Z,100.00
2022-10-17T22:51:37.003Z,100.00
2022-10-17T22:54:03.513Z,100.00
2022-10-17T22:56:29.775Z,100.00
2022-10-17T22:58:56.043Z,100.00
2022-10-17T23:01:24.072Z,100.00
2022-10-17T23:03:51.354Z,100.00
2022-10-17T23:06:18.104Z,100.00
2022-10-17T23:08:44.636Z,100.00
2022-10-17T23:11:12.718Z,100.00
2022-10-17T23:13:40.673Z,100.00
2022-10-17T23:16:07.836Z,100.00
2022-10-17T23:18:34.136Z,100.00
2022-10-17T23:21:00.442Z,100.00
2022-10-17T23:23:26.962Z,100.00
2022-10-17T23:25:53.200Z,100.00
2022-10-17T23:28:19.669Z,100.00
2022-10-17T23:30:46.397Z,100.00
2022-10-17T23:33:13.726Z,100.00
2022-10-17T23:35:40.448Z,100.00
2022-10-17T23:38:07.098Z,100.00
2022-10-17T23:40:34.779Z,100.00
2022-10-17T23:43:01.016Z,100.00
2022-10-17T23:45:27.621Z,100.00
2022-10-17T23:47:53.914Z,100.00
2022-10-17T23:50:20.147Z,100.00
2022-10-17T23:52:46.741Z,100.00
2022-10-17T23:55:13.009Z,100.00
2022-10-17T23:57:39.239Z,100.00
